createdAt,value
2018-08-19T00:00:00.725Z,16.92
2018-08-19T00:02:34.164Z,16.81
2018-08-19T00:05:15.780Z,16.75
2018-08-19T00:07:49.479Z,16.76
2018-08-19T00:10:38.608Z,16.78
2018-08-19T00:13:12.986Z,16.90
2018-08-19T00:15:46.371Z,16.94
2018-08-19T00:18:19.826Z,16.97
2018-08-19T00:20:53.256Z,16.94
2018-08-19T00:23:29.763Z,16.96
2018-08-19T00:26:03.702Z,16.95
2018-08-19T00:28:37.120Z,16.83
2018-08-19T00:31:10.496Z,16.76
2018-08-19T00:33:43.872Z,16.74
2018-08-19T00:36:34.445Z,16.79
2018-08-19T00:39:08.669Z,16.74
2018-08-19T00:41:42.044Z,16.76
2018-08-19T00:44:15.476Z,16.76
2018-08-19T00:46:48.955Z,16.72
2018-08-19T00:49:22.351Z,16.74
2018-08-19T00:51:57.643Z,16.75
2018-08-19T00:54:31.956Z,16.68
2018-08-19T00:57:07.960Z,16.68
2018-08-19T00:59:41.422Z,16.66
2018-08-19T01:02:14.801Z,16.66
2018-08-19T01:04:48.966Z,16.62
2018-08-19T01:07:22.379Z,16.64
2018-08-19T01:09:55.877Z,16.56
2018-08-19T01:12:29.239Z,16.67
2018-08-19T01:15:02.894Z,16.59
2018-08-19T01:17:41.703Z,16.55
2018-08-19T01:20:19.872Z,16.53
2018-08-19T01:22:53.236Z,16.52
2018-08-19T01:25:26.789Z,16.49
2018-08-19T01:28:00.215Z,16.44
2018-08-19T01:30:33.622Z,16.44
2018-08-19T01:33:07.051Z,16.40
2018-08-19T01:35:40.432Z,16.36
2018-08-19T01:38:13.797Z,16.30
2018-08-19T01:40:47.213Z,16.21
2018-08-19T01:43:20.605Z,16.31
2018-08-19T01:45:53.993Z,16.28
2018-08-19T01:48:27.987Z,16.20
2018-08-19T01:51:01.364Z,16.19
2018-08-19T01:53:34.843Z,16.22
2018-08-19T01:56:08.336Z,16.25
2018-08-19T01:58:46.371Z,16.19
2018-08-19T02:01:19.845Z,16.19
2018-08-19T02:03:53.214Z,16.18
2018-08-19T02:06:26.592Z,16.16
2018-08-19T02:09:00.031Z,16.14
2018-08-19T02:11:33.465Z,16.13
2018-08-19T02:14:06.863Z,16.11
2018-08-19T02:16:40.848Z,16.09
2018-08-19T02:19:14.281Z,16.01
2018-08-19T02:21:48.428Z,15.98
2018-08-19T02:24:21.819Z,15.97
2018-08-19T02:26:55.181Z,15.91
2018-08-19T02:29:35.691Z,15.96
2018-08-19T02:32:10.130Z,15.98
2018-08-19T02:34:45.249Z,15.96
2018-08-19T02:37:18.642Z,15.93
2018-08-19T02:39:52.025Z,15.96
2018-08-19T02:42:30.663Z,15.88
2018-08-19T02:45:06.792Z,15.85
2018-08-19T02:47:40.357Z,15.76
2018-08-19T02:50:13.708Z,15.74
2018-08-19T02:52:47.094Z,15.72
2018-08-19T02:55:20.558Z,15.69
2018-08-19T02:57:58.073Z,15.60
2018-08-19T03:00:31.784Z,15.55
2018-08-19T03:03:05.219Z,15.68
2018-08-19T03:05:38.595Z,15.72
2018-08-19T03:08:11.966Z,15.76
2018-08-19T03:10:45.413Z,15.78
2018-08-19T03:13:18.775Z,15.79
2018-08-19T03:15:55.752Z,15.72
2018-08-19T03:18:29.198Z,15.71
2018-08-19T03:21:02.604Z,15.67
2018-08-19T03:23:35.969Z,15.67
2018-08-19T03:26:09.327Z,15.64
2018-08-19T03:28:42.677Z,15.65
2018-08-19T03:31:16.057Z,15.59
2018-08-19T03:33:49.521Z,15.58
2018-08-19T03:36:22.934Z,15.57
2018-08-19T03:39:03.440Z,15.55
2018-08-19T03:41:36.877Z,15.55
2018-08-19T03:44:10.231Z,15.57
2018-08-19T03:46:43.623Z,15.50
2018-08-19T03:49:17.445Z,15.47
2018-08-19T03:51:50.815Z,15.47
2018-08-19T03:54:24.254Z,15.48
2018-08-19T03:56:57.638Z,15.43
2018-08-19T03:59:31.043Z,15.40
2018-08-19T04:02:04.447Z,15.38
2018-08-19T04:04:37.840Z,15.34
2018-08-19T04:07:11.233Z,15.34
2018-08-19T04:09:44.669Z,15.31
2018-08-19T04:12:24.631Z,15.32
2018-08-19T04:14:58.012Z,15.30
2018-08-19T04:17:31.410Z,15.20
2018-08-19T04:20:05.749Z,15.20
2018-08-19T04:22:39.189Z,15.22
2018-08-19T04:25:12.606Z,15.26
2018-08-19T04:27:45.953Z,15.29
2018-08-19T04:30:19.293Z,15.31
2018-08-19T04:32:52.832Z,15.33
2018-08-19T04:35:26.199Z,15.32
2018-08-19T04:37:59.568Z,15.33
2018-08-19T04:40:33.007Z,15.32
2018-08-19T04:43:06.360Z,15.32
2018-08-19T04:45:39.707Z,15.33
2018-08-19T04:48:13.093Z,15.33
2018-08-19T04:50:46.468Z,15.33
2018-08-19T04:53:20.166Z,15.39
2018-08-19T04:55:54.288Z,15.45
2018-08-19T04:58:27.763Z,15.55
2018-08-19T05:01:01.204Z,15.64
2018-08-19T05:03:34.653Z,15.69
2018-08-19T05:06:08.121Z,15.72
2018-08-19T05:08:41.516Z,15.75
2018-08-19T05:11:14.866Z,15.80
2018-08-19T05:13:48.327Z,15.85
2018-08-19T05:16:21.716Z,15.92
2018-08-19T05:19:00.470Z,16.01
2018-08-19T05:21:33.939Z,16.12
2018-08-19T05:24:07.327Z,16.20
2018-08-19T05:26:40.705Z,16.33
2018-08-19T05:29:14.159Z,16.47
2018-08-19T05:31:54.737Z,16.55
2018-08-19T05:34:31.800Z,16.67
2018-08-19T05:37:05.243Z,16.75
2018-08-19T05:39:40.174Z,16.84
2018-08-19T05:42:14.152Z,16.91
2018-08-19T05:44:47.598Z,16.99
2018-08-19T05:47:21.036Z,17.12
2018-08-19T05:49:54.411Z,17.27
2018-08-19T05:52:27.842Z,17.43
2018-08-19T05:55:01.683Z,17.59
2018-08-19T05:57:35.348Z,17.71
2018-08-19T06:00:14.029Z,17.81
2018-08-19T06:02:47.449Z,17.95
2018-08-19T06:05:20.861Z,18.02
2018-08-19T06:07:59.737Z,18.11
2018-08-19T06:10:33.151Z,18.26
2018-08-19T06:13:07.663Z,18.48
2018-08-19T06:15:41.179Z,18.66
2018-08-19T06:18:14.536Z,18.89
2018-08-19T06:20:47.966Z,19.11
2018-08-19T06:23:22.104Z,19.32
2018-08-19T06:25:55.515Z,19.50
2018-08-19T06:28:28.899Z,19.68
2018-08-19T06:31:02.350Z,19.83
2018-08-19T06:33:35.760Z,19.97
2018-08-19T06:36:09.366Z,20.19
2018-08-19T06:38:42.796Z,20.40
2018-08-19T06:41:16.218Z,20.60
2018-08-19T06:43:49.580Z,20.80
2018-08-19T06:46:23.090Z,21.07
2018-08-19T06:48:56.479Z,21.20
2018-08-19T06:51:29.977Z,21.29
2018-08-19T06:54:03.339Z,21.47
2018-08-19T06:56:37.112Z,21.58
2018-08-19T06:59:10.542Z,21.67
2018-08-19T07:01:43.968Z,21.66
2018-08-19T07:04:17.371Z,21.73
2018-08-19T07:06:50.755Z,21.77
2018-08-19T07:09:24.124Z,21.85
2018-08-19T07:12:04.597Z,21.91
2018-08-19T07:14:38.192Z,21.96
2018-08-19T07:17:11.597Z,21.99
2018-08-19T07:22:17.258Z,22.19
2018-08-19T07:24:50.637Z,22.26
2018-08-19T07:27:24.169Z,22.32
2018-08-19T07:29:57.543Z,22.36
2018-08-19T07:32:30.943Z,22.44
2018-08-19T07:35:04.386Z,22.48
2018-08-19T07:37:37.796Z,22.57
2018-08-19T07:40:11.184Z,22.60
2018-08-19T07:42:44.544Z,22.74
2018-08-19T07:45:17.986Z,22.93
2018-08-19T07:47:51.383Z,23.11
2018-08-19T07:50:25.175Z,23.31
2018-08-19T07:52:58.599Z,23.55
2018-08-19T07:55:32.023Z,23.80
2018-08-19T07:58:05.715Z,24.07
2018-08-19T08:00:39.127Z,24.36
2018-08-19T08:03:12.508Z,24.58
2018-08-19T08:05:47.966Z,24.70
2018-08-19T08:08:21.401Z,25.00
2018-08-19T08:10:54.788Z,25.09
2018-08-19T08:13:28.159Z,25.13
2018-08-19T08:16:01.705Z,25.36
2018-08-19T08:18:35.124Z,25.55
2018-08-19T08:21:14.163Z,25.66
2018-08-19T08:23:47.535Z,25.65
2018-08-19T08:26:21.032Z,25.65
2018-08-19T08:28:59.698Z,25.60
2018-08-19T08:31:39.168Z,25.51
2018-08-19T08:34:12.574Z,25.34
2018-08-19T08:36:45.952Z,25.20
2018-08-19T08:39:19.365Z,25.24
2018-08-19T08:41:52.767Z,25.29
2018-08-19T08:44:26.340Z,25.51
2018-08-19T08:47:05.395Z,25.43
2018-08-19T08:49:44.257Z,25.28
2018-08-19T08:52:25.774Z,25.14
2018-08-19T08:55:01.675Z,25.80
2018-08-19T08:57:35.241Z,26.06
2018-08-19T09:00:09.920Z,25.84
2018-08-19T09:02:43.400Z,25.67
2018-08-19T09:05:16.796Z,25.73
2018-08-19T09:07:50.275Z,25.88
2018-08-19T09:10:23.696Z,26.03
2018-08-19T09:12:57.463Z,26.31
2018-08-19T09:15:30.936Z,26.39
2018-08-19T09:18:04.381Z,26.60
2018-08-19T09:20:37.764Z,26.81
2018-08-19T09:23:11.397Z,26.85
2018-08-19T09:25:45.857Z,26.96
2018-08-19T09:28:20.477Z,27.15
2018-08-19T09:30:54.353Z,27.18
2018-08-19T09:33:28.760Z,27.31
2018-08-19T09:36:02.954Z,27.46
2018-08-19T09:38:36.652Z,27.51
2018-08-19T09:41:10.187Z,27.55
2018-08-19T09:43:43.565Z,27.56
2018-08-19T09:46:17.037Z,27.66
2018-08-19T09:48:50.458Z,27.61
2018-08-19T09:51:23.856Z,27.33
2018-08-19T09:53:57.245Z,27.14
2018-08-19T09:56:35.977Z,27.07
2018-08-19T09:59:09.548Z,27.23
2018-08-19T10:01:47.717Z,27.17
2018-08-19T10:04:25.656Z,27.04
2018-08-19T10:07:04.320Z,27.10
2018-08-19T10:09:37.691Z,27.38
2018-08-19T10:12:12.835Z,27.67
2018-08-19T10:14:46.191Z,27.65
2018-08-19T10:17:19.607Z,27.88
2018-08-19T10:19:52.980Z,28.02
2018-08-19T10:22:30.561Z,28.11
2018-08-19T10:25:08.338Z,28.14
2018-08-19T10:27:41.732Z,28.08
2018-08-19T10:30:15.852Z,28.00
2018-08-19T10:32:56.677Z,28.09
2018-08-19T10:35:30.741Z,27.96
2018-08-19T10:38:04.680Z,27.92
2018-08-19T10:40:38.042Z,27.86
2018-08-19T10:43:11.459Z,27.85
2018-08-19T10:45:44.894Z,28.00
2018-08-19T10:48:18.295Z,27.96
2018-08-19T10:50:51.659Z,27.97
2018-08-19T10:53:27.623Z,28.19
2018-08-19T10:56:02.127Z,28.32
2018-08-19T10:58:35.563Z,28.43
2018-08-19T11:01:08.936Z,28.50
2018-08-19T11:03:42.335Z,28.61
2018-08-19T11:06:15.828Z,28.87
2018-08-19T11:08:54.559Z,29.34
2018-08-19T11:11:34.749Z,29.33
2018-08-19T11:14:12.421Z,29.18
2018-08-19T11:16:45.912Z,29.15
2018-08-19T11:19:19.897Z,29.27
2018-08-19T11:21:53.324Z,29.13
2018-08-19T11:24:28.484Z,29.21
2018-08-19T11:27:05.147Z,29.49
2018-08-19T11:29:40.355Z,29.49
2018-08-19T11:32:22.914Z,29.35
2018-08-19T11:34:56.321Z,29.33
2018-08-19T11:37:29.763Z,29.57
2018-08-19T11:40:03.310Z,29.90
2018-08-19T11:42:36.659Z,30.70
2018-08-19T11:45:10.113Z,30.83
2018-08-19T11:47:47.232Z,30.28
2018-08-19T11:50:20.656Z,30.23
2018-08-19T11:52:57.191Z,29.90
2018-08-19T11:55:30.928Z,29.54
2018-08-19T11:58:04.460Z,29.51
2018-08-19T12:00:45.463Z,29.49
2018-08-19T12:03:19.002Z,29.73
2018-08-19T12:05:54.503Z,30.18
2018-08-19T12:08:28.168Z,30.14
2018-08-19T12:11:15.592Z,30.28
2018-08-19T12:13:53.308Z,30.37
2018-08-19T12:16:27.823Z,30.40
2018-08-19T12:19:05.449Z,30.27
2018-08-19T12:21:43.560Z,30.70
2018-08-19T12:24:28.873Z,30.58
2018-08-19T12:27:04.613Z,29.96
2018-08-19T12:29:39.272Z,29.78
2018-08-19T12:32:16.455Z,29.82
2018-08-19T12:34:50.983Z,29.75
2018-08-19T12:37:25.493Z,29.69
2018-08-19T12:39:59.530Z,29.54
2018-08-19T12:42:38.477Z,29.31
2018-08-19T12:45:12.004Z,29.11
2018-08-19T12:47:45.356Z,29.20
2018-08-19T12:50:18.842Z,29.31
2018-08-19T12:52:52.230Z,29.33
2018-08-19T12:55:25.619Z,29.43
2018-08-19T12:58:03.213Z,29.52
2018-08-19T13:00:36.659Z,29.46
2018-08-19T13:03:10.123Z,29.54
2018-08-19T13:05:58.360Z,29.49
2018-08-19T13:08:31.903Z,29.54
2018-08-19T13:11:06.826Z,29.32
2018-08-19T13:13:40.209Z,29.13
2018-08-19T13:16:13.778Z,29.14
2018-08-19T13:18:47.133Z,29.06
2018-08-19T13:21:20.645Z,29.09
2018-08-19T13:23:54.020Z,29.12
2018-08-19T13:26:27.397Z,29.19
2018-08-19T13:29:00.808Z,29.23
2018-08-19T13:31:35.298Z,29.31
2018-08-19T13:34:08.637Z,29.34
2018-08-19T13:36:42.087Z,29.29
2018-08-19T13:39:15.455Z,29.29
2018-08-19T13:41:48.840Z,29.31
2018-08-19T13:44:22.266Z,29.29
2018-08-19T13:46:55.669Z,29.25
2018-08-19T13:49:29.784Z,29.21
2018-08-19T13:52:03.332Z,29.17
2018-08-19T13:54:48.648Z,29.20
2018-08-19T13:57:22.109Z,29.25
2018-08-19T13:59:55.514Z,29.26
2018-08-19T14:02:28.904Z,29.32
2018-08-19T14:05:02.494Z,29.20
2018-08-19T14:07:35.902Z,29.15
2018-08-19T14:10:10.727Z,29.04
2018-08-19T14:12:44.135Z,29.06
2018-08-19T14:15:17.559Z,28.97
2018-08-19T14:17:50.936Z,29.04
2018-08-19T14:20:24.607Z,29.13
2018-08-19T14:22:58.119Z,29.20
2018-08-19T14:25:31.557Z,29.17
2018-08-19T14:28:05.065Z,29.16
2018-08-19T14:30:38.530Z,29.13
2018-08-19T14:33:11.888Z,29.10
2018-08-19T14:35:45.301Z,29.01
2018-08-19T14:38:18.825Z,28.93
2018-08-19T14:40:52.222Z,28.96
2018-08-19T14:43:25.661Z,28.97
2018-08-19T14:45:59.129Z,28.94
2018-08-19T14:48:32.678Z,28.88
2018-08-19T14:51:06.064Z,28.82
2018-08-19T14:53:39.469Z,28.75
2018-08-19T14:56:15.820Z,28.79
2018-08-19T14:58:49.695Z,28.70
2018-08-19T15:01:23.075Z,28.68
2018-08-19T15:03:58.344Z,28.67
2018-08-19T15:06:31.728Z,28.68
2018-08-19T15:09:05.556Z,28.66
2018-08-19T15:11:38.915Z,28.73
2018-08-19T15:14:18.387Z,28.60
2018-08-19T15:16:52.832Z,28.58
2018-08-19T15:19:26.256Z,28.59
2018-08-19T15:21:59.669Z,28.59
2018-08-19T15:24:33.020Z,28.50
2018-08-19T15:27:06.440Z,28.48
2018-08-19T15:29:42.807Z,28.50
2018-08-19T15:32:16.643Z,28.45
2018-08-19T15:34:49.946Z,28.31
2018-08-19T15:37:23.313Z,28.40
2018-08-19T15:39:56.674Z,28.41
2018-08-19T15:42:30.049Z,28.27
2018-08-19T15:45:03.449Z,28.22
2018-08-19T15:47:36.812Z,28.19
2018-08-19T15:50:18.563Z,28.19
2018-08-19T15:52:52.029Z,28.06
2018-08-19T15:55:25.334Z,28.06
2018-08-19T15:58:01.852Z,28.07
2018-08-19T16:00:38.737Z,27.96
2018-08-19T16:03:13.251Z,27.99
2018-08-19T16:05:46.880Z,28.10
2018-08-19T16:08:20.551Z,28.09
2018-08-19T16:10:53.955Z,28.13
2018-08-19T16:13:27.341Z,28.04
2018-08-19T16:16:00.744Z,27.98
2018-08-19T16:18:34.132Z,27.89
2018-08-19T16:21:07.572Z,27.85
2018-08-19T16:23:41.061Z,27.82
2018-08-19T16:26:14.472Z,27.80
2018-08-19T16:28:48.072Z,27.92
2018-08-19T16:31:21.675Z,27.97
2018-08-19T16:33:55.127Z,27.97
2018-08-19T16:36:28.513Z,27.85
2018-08-19T16:39:01.907Z,27.84
2018-08-19T16:41:35.608Z,27.79
2018-08-19T16:44:09.633Z,27.77
2018-08-19T16:46:43.365Z,27.78
2018-08-19T16:49:17.073Z,27.75
2018-08-19T16:51:50.446Z,27.70
2018-08-19T16:54:23.842Z,27.70
2018-08-19T16:56:57.258Z,27.64
2018-08-19T16:59:30.642Z,27.65
2018-08-19T17:02:04.099Z,27.56
2018-08-19T17:04:38.571Z,27.51
2018-08-19T17:07:12.364Z,27.42
2018-08-19T17:09:45.770Z,27.39
2018-08-19T17:12:19.160Z,27.46
2018-08-19T17:14:52.593Z,27.48
2018-08-19T17:17:26.044Z,27.35
2018-08-19T17:19:59.466Z,27.43
2018-08-19T17:22:32.822Z,27.31
2018-08-19T17:25:06.535Z,27.20
2018-08-19T17:27:39.889Z,27.07
2018-08-19T17:30:17.437Z,27.02
2018-08-19T17:32:52.692Z,26.99
2018-08-19T17:35:26.408Z,27.00
2018-08-19T17:37:59.848Z,26.95
2018-08-19T17:40:33.283Z,26.90
2018-08-19T17:43:07.043Z,26.81
2018-08-19T17:45:40.577Z,26.73
2018-08-19T17:48:14.027Z,26.57
2018-08-19T17:50:47.492Z,26.47
2018-08-19T17:53:20.932Z,26.44
2018-08-19T17:55:54.296Z,26.33
2018-08-19T17:58:27.676Z,26.29
2018-08-19T18:01:01.083Z,26.25
2018-08-19T18:03:34.501Z,26.14
2018-08-19T18:06:07.965Z,26.10
2018-08-19T18:08:48.037Z,26.02
2018-08-19T18:11:21.800Z,25.94
2018-08-19T18:13:55.207Z,25.92
2018-08-19T18:16:28.647Z,25.92
2018-08-19T18:19:03.065Z,25.86
2018-08-19T18:21:36.759Z,25.81
2018-08-19T18:24:10.176Z,25.71
2018-08-19T18:26:43.573Z,25.63
2018-08-19T18:29:18.286Z,25.56
2018-08-19T18:31:51.667Z,25.46
2018-08-19T18:34:25.043Z,25.33
2018-08-19T18:36:58.401Z,25.19
2018-08-19T18:39:31.815Z,25.10
2018-08-19T18:42:05.217Z,24.99
2018-08-19T18:44:38.591Z,24.90
2018-08-19T18:47:11.995Z,24.78
2018-08-19T18:49:45.449Z,24.66
2018-08-19T18:52:18.832Z,24.57
2018-08-19T18:54:52.199Z,24.54
2018-08-19T18:57:25.641Z,24.45
2018-08-19T18:59:59.011Z,24.35
2018-08-19T19:02:32.424Z,24.35
2018-08-19T19:05:06.844Z,24.31
2018-08-19T19:07:40.250Z,24.35
2018-08-19T19:10:13.847Z,24.38
2018-08-19T19:12:47.363Z,24.36
2018-08-19T19:15:20.988Z,24.31
2018-08-19T19:17:54.461Z,24.22
2018-08-19T19:20:27.852Z,24.16
2018-08-19T19:23:03.135Z,24.13
2018-08-19T19:25:40.633Z,24.11
2018-08-19T19:28:14.015Z,24.09
2018-08-19T19:30:47.414Z,24.06
2018-08-19T19:33:21.211Z,24.03
2018-08-19T19:35:54.590Z,24.01
2018-08-19T19:38:27.993Z,23.98
2018-08-19T19:41:09.786Z,23.91
2018-08-19T19:43:43.163Z,23.87
2018-08-19T19:46:16.578Z,23.80
2018-08-19T19:48:50.127Z,23.71
2018-08-19T19:51:23.583Z,23.64
2018-08-19T19:53:56.939Z,23.56
2018-08-19T19:56:30.353Z,23.50
2018-08-19T19:59:03.708Z,23.42
2018-08-19T20:01:37.252Z,23.33
2018-08-19T20:04:10.619Z,23.26
2018-08-19T20:06:43.988Z,23.17
2018-08-19T20:09:17.393Z,23.09
2018-08-19T20:11:50.840Z,23.01
2018-08-19T20:14:24.308Z,22.94
2018-08-19T20:16:57.682Z,22.83
2018-08-19T20:19:31.922Z,22.77
2018-08-19T20:22:05.365Z,22.73
2018-08-19T20:24:38.756Z,22.66
2018-08-19T20:27:12.182Z,22.58
2018-08-19T20:29:45.697Z,22.49
2018-08-19T20:32:19.134Z,22.43
2018-08-19T20:34:52.528Z,22.36
2018-08-19T20:37:27.903Z,22.28
2018-08-19T20:40:01.599Z,22.22
2018-08-19T20:42:34.973Z,22.14
2018-08-19T20:45:08.886Z,22.05
2018-08-19T20:47:42.275Z,21.86
2018-08-19T20:50:16.308Z,21.79
2018-08-19T20:52:49.722Z,21.72
2018-08-19T20:55:23.100Z,21.61
2018-08-19T20:57:56.525Z,21.55
2018-08-19T21:00:29.904Z,21.49
2018-08-19T21:03:03.469Z,21.43
2018-08-19T21:05:37.156Z,21.40
2018-08-19T21:08:12.222Z,21.35
2018-08-19T21:10:46.460Z,21.26
2018-08-19T21:13:20.694Z,21.11
2018-08-19T21:15:55.602Z,20.99
2018-08-19T21:18:29.715Z,20.92
2018-08-19T21:21:03.094Z,20.87
2018-08-19T21:23:36.496Z,20.80
2018-08-19T21:26:09.886Z,20.76
2018-08-19T21:28:48.615Z,20.71
2018-08-19T21:31:22.013Z,20.72
2018-08-19T21:33:55.411Z,20.73
2018-08-19T21:36:28.847Z,20.70
2018-08-19T21:39:02.260Z,20.67
2018-08-19T21:41:46.758Z,20.67
2018-08-19T21:44:20.644Z,20.66
2018-08-19T21:46:54.055Z,20.62
2018-08-19T21:49:27.438Z,20.55
2018-08-19T21:52:01.621Z,20.56
2018-08-19T21:54:35.040Z,20.55
2018-08-19T21:57:08.439Z,20.55
2018-08-19T21:59:41.828Z,20.53
2018-08-19T22:02:20.557Z,20.50
2018-08-19T22:04:54.108Z,20.47
2018-08-19T22:07:27.499Z,20.45
2018-08-19T22:10:00.992Z,20.44
2018-08-19T22:12:35.969Z,20.51
2018-08-19T22:15:09.353Z,20.47
2018-08-19T22:17:42.771Z,20.44
2018-08-19T22:20:16.224Z,20.42
2018-08-19T22:22:49.663Z,20.36
2018-08-19T22:25:23.547Z,20.30
2018-08-19T22:27:56.964Z,20.25
2018-08-19T22:30:31.484Z,20.18
2018-08-19T22:33:05.236Z,20.09
2018-08-19T22:35:38.722Z,20.11
2018-08-19T22:38:17.354Z,20.09
2018-08-19T22:40:50.811Z,20.06
2018-08-19T22:43:24.278Z,19.95
2018-08-19T22:45:57.713Z,19.89
2018-08-19T22:48:40.531Z,19.85
2018-08-19T22:51:14.933Z,19.80
2018-08-19T22:53:52.233Z,19.76
2018-08-19T22:56:25.654Z,19.76
2018-08-19T22:58:59.079Z,19.81
2018-08-19T23:01:38.343Z,19.86
2018-08-19T23:04:11.823Z,19.90
2018-08-19T23:06:45.223Z,19.91
2018-08-19T23:09:18.674Z,19.90
2018-08-19T23:11:52.059Z,19.92
2018-08-19T23:14:36.892Z,19.92
2018-08-19T23:17:10.320Z,19.90
2018-08-19T23:19:43.768Z,19.90
2018-08-19T23:22:17.184Z,19.89
2018-08-19T23:24:50.582Z,19.90
2018-08-19T23:27:23.970Z,19.89
2018-08-19T23:29:57.360Z,19.88
2018-08-19T23:32:30.756Z,19.94
2018-08-19T23:35:04.219Z,19.94
2018-08-19T23:37:37.723Z,19.94
2018-08-19T23:40:11.130Z,19.93
2018-08-19T23:42:44.524Z,19.95
2018-08-19T23:45:17.924Z,19.96
2018-08-19T23:47:51.319Z,19.96
2018-08-19T23:50:24.713Z,19.86
2018-08-19T23:52:58.138Z,19.88
2018-08-19T23:55:32.031Z,19.94
2018-08-19T23:58:05.742Z,19.95
